createdAt,value
2019-02-16T00:03:57.587Z,22.40
2019-02-16T00:08:59.271Z,22.80
2019-02-16T00:14:02.292Z,20.17
2019-02-16T00:19:03.610Z,17.20
2019-02-16T00:24:04.921Z,20.95
2019-02-16T00:29:06.507Z,23.77
2019-02-16T00:34:07.923Z,22.85
2019-02-16T00:39:09.247Z,20.12
2019-02-16T00:44:10.732Z,20.40
2019-02-16T00:49:12.427Z,21.20
2019-02-16T00:54:13.760Z,19.62
2019-02-16T00:59:15.074Z,20.68
2019-02-16T01:04:16.476Z,22.30
2019-02-16T01:09:17.815Z,17.32
2019-02-16T01:14:19.166Z,17.60
2019-02-16T01:19:20.622Z,21.23
2019-02-16T01:24:22.076Z,19.55
2019-02-16T01:29:23.474Z,18.32
2019-02-16T01:34:24.893Z,17.45
2019-02-16T01:39:26.309Z,18.90
2019-02-16T01:44:27.738Z,17.60
2019-02-16T01:49:29.189Z,18.80
2019-02-16T01:54:30.524Z,21.33
2019-02-16T01:59:31.911Z,21.02
2019-02-16T02:04:33.442Z,21.60
2019-02-16T02:09:34.844Z,24.15
2019-02-16T02:14:36.739Z,22.32
2019-02-16T02:19:38.236Z,22.70
2019-02-16T02:24:39.539Z,20.08
2019-02-16T02:29:41.042Z,20.65
2019-02-16T02:34:42.945Z,21.15
2019-02-16T02:39:44.651Z,19.15
2019-02-16T02:44:46.555Z,23.90
2019-02-16T02:49:48.054Z,21.75
2019-02-16T02:54:49.713Z,24.57
2019-02-16T02:59:51.114Z,20.27
2019-02-16T03:04:52.908Z,21.70
2019-02-16T03:09:56.040Z,25.27
2019-02-16T03:14:57.394Z,23.10
2019-02-16T03:19:58.899Z,21.60
2019-02-16T03:25:00.530Z,22.70
2019-02-16T03:30:32.091Z,23.45
2019-02-16T03:35:48.097Z,24.23
2019-02-16T03:40:49.907Z,24.57
2019-02-16T03:45:51.258Z,28.17
2019-02-16T03:50:52.724Z,25.82
2019-02-16T03:55:54.174Z,24.72
2019-02-16T04:00:55.954Z,22.58
2019-02-16T04:05:57.370Z,25.57
2019-02-16T04:10:58.752Z,22.77
2019-02-16T04:16:00.378Z,22.85
2019-02-16T04:21:02.850Z,20.88
2019-02-16T04:26:09.221Z,28.75
2019-02-16T04:31:10.822Z,25.45
2019-02-16T04:36:12.205Z,21.62
2019-02-16T04:41:13.551Z,29.10
2019-02-16T04:46:15.265Z,22.30
2019-02-16T04:51:16.733Z,23.65
2019-02-16T04:56:18.207Z,25.55
2019-02-16T05:01:20.030Z,25.85
2019-02-16T05:06:21.433Z,24.95
2019-02-16T05:11:22.868Z,20.88
2019-02-16T05:16:24.409Z,29.70
2019-02-16T05:21:25.775Z,24.60
2019-02-16T05:26:27.292Z,26.23
2019-02-16T05:31:29.046Z,24.87
2019-02-16T05:36:30.474Z,23.65
2019-02-16T05:41:31.804Z,22.25
2019-02-16T05:46:33.523Z,21.57
2019-02-16T05:51:34.969Z,23.92
2019-02-16T06:01:55.921Z,22.77
2019-02-16T06:06:57.197Z,23.10
2019-02-16T06:11:58.561Z,31.35
2019-02-16T06:16:59.864Z,26.07
2019-02-16T06:22:01.596Z,25.55
2019-02-16T06:27:03.113Z,25.95
2019-02-16T06:32:04.740Z,30.43
2019-02-16T06:37:10.639Z,27.02
2019-02-16T06:42:12.201Z,28.20
2019-02-16T06:47:14.489Z,28.90
2019-02-16T06:52:15.810Z,29.80
2019-02-16T06:57:25.297Z,29.52
2019-02-16T07:02:28.731Z,32.15
2019-02-16T07:07:30.136Z,26.80
2019-02-16T07:12:31.813Z,33.48
2019-02-16T07:17:35.065Z,31.20
2019-02-16T07:22:36.604Z,31.00
2019-02-16T07:27:38.076Z,30.30
2019-02-16T07:32:40.189Z,33.13
2019-02-16T07:37:41.557Z,33.35
2019-02-16T07:42:54.029Z,32.98
2019-02-16T07:48:06.409Z,31.42
2019-02-16T07:53:14.186Z,35.43
2019-02-16T07:58:37.325Z,32.73
2019-02-16T08:03:54.172Z,32.98
2019-02-16T08:09:02.897Z,38.60
2019-02-16T08:14:13.975Z,37.05
2019-02-16T08:19:20.168Z,29.65
2019-02-16T08:24:39.930Z,36.35
2019-02-16T08:29:49.471Z,36.10
2019-02-16T08:34:52.915Z,31.42
2019-02-16T08:40:03.051Z,31.42
2019-02-16T08:45:08.274Z,28.73
2019-02-16T08:50:20.669Z,30.82
2019-02-16T08:55:36.579Z,30.23
2019-02-16T09:00:57.227Z,32.23
2019-02-16T09:06:12.697Z,32.70
2019-02-16T09:11:21.866Z,30.75
2019-02-16T09:16:25.117Z,32.55
2019-02-16T09:21:34.561Z,31.73
2019-02-16T09:26:37.807Z,29.55
2019-02-16T09:31:52.994Z,28.60
2019-02-16T09:37:02.293Z,34.55
2019-02-16T09:42:05.715Z,33.33
2019-02-16T09:47:12.361Z,32.50
2019-02-16T09:52:24.711Z,34.65
2019-02-16T09:57:28.060Z,31.97
2019-02-16T10:02:37.428Z,35.45
2019-02-16T10:07:43.593Z,37.38
2019-02-16T10:12:56.086Z,35.63
2019-02-16T10:18:15.661Z,36.20
2019-02-16T10:23:34.417Z,36.15
2019-02-16T10:28:37.963Z,34.55
2019-02-16T10:33:41.330Z,34.38
2019-02-16T10:38:44.775Z,38.92
2019-02-16T10:43:48.134Z,32.93
2019-02-16T10:48:58.938Z,35.38
2019-02-16T10:54:27.009Z,35.35
2019-02-16T10:59:32.140Z,35.55
2019-02-16T11:04:41.315Z,30.72
2019-02-16T11:09:50.422Z,33.38
2019-02-16T11:14:56.716Z,34.67
2019-02-16T11:20:15.336Z,35.50
2019-02-16T11:25:35.698Z,35.80
2019-02-16T11:30:41.810Z,38.67
2019-02-16T11:35:48.914Z,34.25
2019-02-16T11:40:52.304Z,36.00
2019-02-16T11:45:55.684Z,36.60
2019-02-16T11:51:17.592Z,32.90
2019-02-16T11:56:23.510Z,34.55
2019-02-16T12:01:29.923Z,38.58
2019-02-16T12:06:36.483Z,39.73
2019-02-16T12:11:45.782Z,37.70
2019-02-16T12:17:10.659Z,37.13
2019-02-16T12:22:23.211Z,37.67
2019-02-16T12:27:32.310Z,39.92
2019-02-16T12:32:47.870Z,35.25
2019-02-16T12:37:51.238Z,36.55
2019-02-16T12:43:11.286Z,35.13
2019-02-16T12:48:23.184Z,35.10
2019-02-16T12:53:36.024Z,35.80
2019-02-16T12:58:54.829Z,37.40
2019-02-16T13:03:58.411Z,35.73
2019-02-16T13:09:19.769Z,33.92
2019-02-16T13:14:30.462Z,32.95
2019-02-16T13:19:43.066Z,34.70
2019-02-16T13:24:46.528Z,33.38
2019-02-16T13:29:50.138Z,31.60
2019-02-16T13:34:59.440Z,36.93
2019-02-16T13:40:11.318Z,31.70
2019-02-16T13:45:26.300Z,40.20
2019-02-16T13:50:32.664Z,32.78
2019-02-16T13:55:52.382Z,35.65
2019-02-16T14:01:01.525Z,30.82
2019-02-16T14:06:16.936Z,33.78
2019-02-16T14:11:35.090Z,35.78
2019-02-16T14:16:44.666Z,33.88
2019-02-16T14:21:46.370Z,33.05
2019-02-16T14:26:48.524Z,38.63
2019-02-16T14:31:51.911Z,31.95
2019-02-16T14:36:53.190Z,32.55
2019-02-16T14:41:54.720Z,34.15
2019-02-16T14:46:56.903Z,35.00
2019-02-16T14:51:59.385Z,37.50
2019-02-16T14:57:01.014Z,36.60
2019-02-16T15:02:02.869Z,32.13
2019-02-16T15:07:04.476Z,33.08
2019-02-16T15:12:05.884Z,36.10
2019-02-16T15:17:07.363Z,32.78
2019-02-16T15:22:09.021Z,34.67
2019-02-16T15:27:12.020Z,29.32
2019-02-16T15:32:13.388Z,32.93
2019-02-16T15:37:16.138Z,33.42
2019-02-16T15:42:17.750Z,32.63
2019-02-16T15:47:19.181Z,33.15
2019-02-16T15:52:20.673Z,35.78
2019-02-16T15:57:22.089Z,34.58
2019-02-16T16:02:23.586Z,39.60
2019-02-16T16:07:25.041Z,35.75
2019-02-16T16:12:31.458Z,37.53
2019-02-16T16:17:36.660Z,39.98
2019-02-16T16:22:48.587Z,38.08
2019-02-16T16:27:57.574Z,36.23
2019-02-16T16:33:18.113Z,39.13
2019-02-16T16:38:22.944Z,34.38
2019-02-16T16:43:26.909Z,29.87
2019-02-16T16:48:30.688Z,39.90
2019-02-16T16:53:46.184Z,41.95
2019-02-16T16:59:04.865Z,40.98
2019-02-16T17:04:08.212Z,41.60
2019-02-16T17:09:23.467Z,39.40
2019-02-16T17:14:43.935Z,42.58
2019-02-16T17:19:53.047Z,38.85
2019-02-16T17:24:58.174Z,43.95
2019-02-16T17:30:04.080Z,38.85
2019-02-16T17:35:13.283Z,43.58
2019-02-16T17:40:22.928Z,41.33
2019-02-16T17:45:26.294Z,40.85
2019-02-16T17:50:38.612Z,42.85
2019-02-16T17:55:50.613Z,45.50
2019-02-16T18:00:56.851Z,42.62
2019-02-16T18:06:00.194Z,48.87
2019-02-16T18:11:09.624Z,50.23
2019-02-16T18:16:12.834Z,96.90
2019-02-16T18:21:31.446Z,96.72
2019-02-16T18:27:09.882Z,93.92
2019-02-16T18:32:31.541Z,85.50
2019-02-16T18:37:35.249Z,103.30
2019-02-16T18:42:38.714Z,102.38
2019-02-16T18:48:00.596Z,91.32
2019-02-16T18:53:09.751Z,83.82
2019-02-16T18:58:15.828Z,73.62
2019-02-16T19:03:20.409Z,72.42
2019-02-16T19:08:23.859Z,72.42
2019-02-16T19:13:56.861Z,70.67
2019-02-16T19:19:09.816Z,75.72
2019-02-16T19:24:16.114Z,77.50
2019-02-16T19:29:25.326Z,74.55
2019-02-16T19:34:40.475Z,72.75
2019-02-16T19:39:46.800Z,66.72
2019-02-16T19:45:06.735Z,63.45
2019-02-16T19:50:16.137Z,58.15
2019-02-16T19:55:38.040Z,58.23
2019-02-16T20:00:44.220Z,69.20
2019-02-16T20:05:53.324Z,64.90
2019-02-16T20:10:56.766Z,64.67
2019-02-16T20:16:06.228Z,64.37
2019-02-16T20:21:12.654Z,127.82
2019-02-16T20:26:34.376Z,134.03
2019-02-16T20:31:55.581Z,94.70
2019-02-16T20:36:58.818Z,78.95
2019-02-16T20:42:15.857Z,69.27
2019-02-16T20:47:34.156Z,72.25
2019-02-16T20:52:43.302Z,76.50
2019-02-16T20:57:48.611Z,74.62
2019-02-16T21:02:54.972Z,80.05
2019-02-16T21:08:04.352Z,83.10
2019-02-16T21:13:07.630Z,76.10
2019-02-16T21:18:11.014Z,65.87
2019-02-16T21:23:31.012Z,63.75
2019-02-16T21:28:49.205Z,65.92
2019-02-16T21:34:03.248Z,63.75
2019-02-16T21:39:13.168Z,58.35
2019-02-16T21:44:28.246Z,63.42
2019-02-16T21:49:31.624Z,66.95
2019-02-16T21:54:51.642Z,76.75
2019-02-16T22:00:09.684Z,61.30
2019-02-16T22:05:15.766Z,66.40
2019-02-16T22:10:28.044Z,69.27
2019-02-16T22:15:29.697Z,73.33
2019-02-16T22:20:31.360Z,62.53
2019-02-16T22:25:32.994Z,62.53
2019-02-16T22:30:34.556Z,65.50
2019-02-16T22:35:36.051Z,59.33
2019-02-16T22:40:40.477Z,67.35
2019-02-16T22:45:41.814Z,62.88
2019-02-16T22:50:43.143Z,66.70
2019-02-16T22:55:44.447Z,65.20
2019-02-16T23:00:47.994Z,58.25
2019-02-16T23:05:49.469Z,63.00
2019-02-16T23:10:50.974Z,64.82
2019-02-16T23:15:52.576Z,63.70
2019-02-16T23:20:54.210Z,60.08
2019-02-16T23:25:55.865Z,60.67
2019-02-16T23:30:59.275Z,61.88
2019-02-16T23:36:00.742Z,58.65
2019-02-16T23:41:02.278Z,65.75
2019-02-16T23:46:03.706Z,58.17
2019-02-16T23:51:05.183Z,52.70
2019-02-16T23:56:06.635Z,60.20
